createdAt,value
2023-03-07T00:01:58.612Z,9.43
2023-03-07T00:04:53.053Z,9.23
2023-03-07T00:07:44.437Z,9.88
2023-03-07T00:10:35.894Z,10.23
2023-03-07T00:13:28.742Z,10.15
2023-03-07T00:16:22.591Z,9.33
2023-03-07T00:19:14.057Z,9.63
2023-03-07T00:22:05.784Z,9.80
2023-03-07T00:24:57.161Z,9.68
2023-03-07T00:27:48.873Z,10.38
2023-03-07T00:30:40.092Z,10.15
2023-03-07T00:33:31.310Z,10.58
2023-03-07T00:36:24.238Z,9.75
2023-03-07T00:39:23.010Z,9.85
2023-03-07T00:42:14.364Z,10.72
2023-03-07T00:45:06.207Z,10.38
2023-03-07T00:48:00.735Z,11.03
2023-03-07T00:50:52.620Z,10.80
2023-03-07T00:53:45.318Z,10.50
2023-03-07T00:56:36.567Z,11.22
2023-03-07T00:59:28.312Z,11.48
2023-03-07T01:02:19.806Z,10.88
2023-03-07T01:05:11.931Z,12.00
2023-03-07T01:08:03.618Z,10.80
2023-03-07T01:10:56.318Z,10.30
2023-03-07T01:13:47.737Z,11.18
2023-03-07T01:16:40.924Z,11.63
2023-03-07T01:19:32.949Z,11.40
2023-03-07T01:22:29.451Z,11.33
2023-03-07T01:25:22.217Z,11.67
2023-03-07T01:28:15.852Z,10.80
2023-03-07T01:31:07.455Z,10.80
2023-03-07T01:33:59.358Z,10.08
2023-03-07T01:36:51.252Z,10.35
2023-03-07T01:39:43.220Z,10.53
2023-03-07T01:42:38.010Z,10.28
2023-03-07T01:46:04.963Z,10.98
2023-03-07T01:48:59.461Z,10.88
2023-03-07T01:51:56.169Z,10.63
2023-03-07T01:54:51.716Z,11.05
2023-03-07T01:57:47.457Z,10.75
2023-03-07T02:00:41.492Z,9.68
2023-03-07T02:03:36.183Z,10.18
2023-03-07T02:06:31.287Z,10.82
2023-03-07T02:09:25.718Z,10.48
2023-03-07T02:12:17.837Z,10.32
2023-03-07T02:15:11.750Z,10.13
2023-03-07T02:18:06.134Z,9.45
2023-03-07T02:21:01.237Z,10.80
2023-03-07T02:23:57.352Z,9.68
2023-03-07T02:26:50.664Z,10.82
2023-03-07T02:29:45.662Z,10.98
2023-03-07T02:32:37.185Z,10.58
2023-03-07T02:35:29.453Z,11.38
2023-03-07T02:41:03.928Z,10.60
2023-03-07T02:43:57.482Z,9.88
2023-03-07T02:46:49.279Z,10.53
2023-03-07T02:49:41.209Z,9.28
2023-03-07T02:52:32.689Z,9.58
2023-03-07T02:55:23.959Z,9.38
2023-03-07T02:58:17.062Z,8.70
2023-03-07T03:01:08.822Z,9.50
2023-03-07T03:04:05.270Z,10.45
2023-03-07T03:07:00.880Z,10.48
2023-03-07T03:09:55.263Z,10.35
2023-03-07T03:12:47.504Z,10.15
2023-03-07T03:15:39.318Z,10.48
2023-03-07T03:18:31.881Z,10.08
2023-03-07T03:21:23.333Z,11.05
2023-03-07T03:24:15.503Z,10.13
2023-03-07T03:27:09.221Z,9.98
2023-03-07T03:30:01.200Z,10.32
2023-03-07T03:32:54.052Z,10.35
2023-03-07T03:35:45.487Z,9.10
2023-03-07T03:38:41.733Z,9.55
2023-03-07T03:41:33.436Z,9.43
2023-03-07T03:44:25.256Z,9.88
2023-03-07T03:47:17.184Z,9.80
2023-03-07T03:50:10.417Z,9.35
2023-03-07T03:53:03.753Z,8.43
2023-03-07T03:55:56.932Z,8.95
2023-03-07T03:58:51.695Z,9.13
2023-03-07T04:01:44.009Z,8.35
2023-03-07T04:04:36.820Z,8.83
2023-03-07T04:07:29.794Z,8.45
2023-03-07T04:10:21.291Z,8.85
2023-03-07T04:13:12.585Z,9.30
2023-03-07T04:16:04.307Z,9.13
2023-03-07T04:18:56.692Z,8.93
2023-03-07T04:21:48.102Z,9.80
2023-03-07T04:24:40.727Z,9.68
2023-03-07T04:27:34.118Z,9.75
2023-03-07T04:30:33.889Z,9.00
2023-03-07T04:33:27.497Z,10.25
2023-03-07T04:36:26.705Z,9.18
2023-03-07T04:39:18.554Z,9.95
2023-03-07T04:42:11.048Z,10.28
2023-03-07T04:45:08.670Z,10.23
2023-03-07T04:48:03.314Z,10.43
2023-03-07T04:50:55.681Z,10.72
2023-03-07T04:53:48.645Z,10.20
2023-03-07T04:56:40.448Z,10.58
2023-03-07T04:59:33.389Z,10.08
2023-03-07T05:02:24.939Z,11.08
2023-03-07T05:05:17.146Z,11.22
2023-03-07T05:08:10.846Z,10.55
2023-03-07T05:11:02.278Z,10.00
2023-03-07T05:14:07.434Z,10.80
2023-03-07T05:17:01.610Z,11.50
2023-03-07T05:19:55.697Z,11.45
2023-03-07T05:22:47.964Z,11.40
2023-03-07T05:25:41.569Z,11.73
2023-03-07T05:28:34.292Z,11.05
2023-03-07T05:31:26.557Z,11.63
2023-03-07T05:34:18.538Z,11.20
2023-03-07T05:37:10.639Z,11.03
2023-03-07T05:40:02.737Z,10.98
2023-03-07T05:42:54.095Z,10.72
2023-03-07T05:45:45.667Z,10.68
2023-03-07T05:48:37.791Z,11.63
2023-03-07T05:51:29.530Z,13.28
2023-03-07T05:54:24.514Z,11.25
2023-03-07T05:57:15.948Z,10.32
2023-03-07T06:00:14.951Z,11.15
2023-03-07T06:03:08.021Z,11.05
2023-03-07T06:06:01.726Z,11.25
2023-03-07T06:08:53.111Z,11.57
2023-03-07T06:14:33.372Z,10.68
2023-03-07T06:17:25.389Z,11.05
2023-03-07T06:20:19.773Z,11.08
2023-03-07T06:23:13.323Z,10.85
2023-03-07T06:26:07.686Z,10.45
2023-03-07T06:28:58.699Z,11.20
2023-03-07T06:31:51.386Z,10.93
2023-03-07T06:34:42.603Z,11.45
2023-03-07T06:37:35.168Z,11.75
2023-03-07T06:40:26.712Z,12.35
2023-03-07T06:43:18.387Z,11.38
2023-03-07T06:46:10.322Z,10.78
2023-03-07T06:49:03.751Z,11.10
2023-03-07T06:51:56.051Z,10.85
2023-03-07T06:54:47.616Z,11.40
2023-03-07T06:57:39.048Z,11.78
2023-03-07T07:00:31.406Z,11.48
2023-03-07T07:03:26.030Z,11.45
2023-03-07T07:06:17.498Z,11.18
2023-03-07T07:09:09.145Z,11.45
2023-03-07T07:12:02.082Z,11.70
2023-03-07T07:14:57.572Z,12.50
2023-03-07T07:17:49.711Z,11.75
2023-03-07T07:20:42.111Z,10.95
2023-03-07T07:23:34.507Z,11.63
2023-03-07T07:26:27.546Z,11.65
2023-03-07T07:29:21.357Z,12.20
2023-03-07T07:32:13.422Z,11.53
2023-03-07T07:35:05.734Z,12.60
2023-03-07T07:37:57.775Z,11.60
2023-03-07T07:40:51.447Z,11.97
2023-03-07T07:43:43.232Z,12.58
2023-03-07T07:46:36.789Z,12.60
2023-03-07T07:49:30.586Z,12.60
2023-03-07T07:52:22.661Z,12.45
2023-03-07T07:55:14.756Z,13.48
2023-03-07T07:58:17.802Z,12.70
2023-03-07T08:01:18.145Z,12.82
2023-03-07T08:04:09.730Z,11.55
2023-03-07T08:07:03.143Z,11.33
2023-03-07T08:09:55.510Z,11.63
2023-03-07T08:12:48.593Z,10.90
2023-03-07T08:15:39.949Z,10.45
2023-03-07T08:18:31.623Z,11.40
2023-03-07T08:21:25.302Z,11.40
2023-03-07T08:24:16.502Z,11.33
2023-03-07T08:27:09.698Z,12.37
2023-03-07T08:30:03.016Z,11.53
2023-03-07T08:32:58.388Z,11.45
2023-03-07T08:35:51.112Z,11.38
2023-03-07T08:38:42.504Z,13.53
2023-03-07T08:41:36.311Z,12.70
2023-03-07T08:44:28.117Z,10.60
2023-03-07T08:47:19.332Z,10.63
2023-03-07T08:50:12.914Z,11.03
2023-03-07T08:53:05.162Z,11.53
2023-03-07T08:56:01.656Z,10.80
2023-03-07T08:58:59.998Z,10.55
2023-03-07T09:01:52.269Z,11.00
2023-03-07T09:04:44.047Z,11.33
2023-03-07T09:07:35.504Z,10.78
2023-03-07T09:10:28.664Z,12.15
2023-03-07T09:13:33.038Z,11.48
2023-03-07T09:16:24.350Z,10.32
2023-03-07T09:19:17.291Z,12.40
2023-03-07T09:22:14.537Z,10.90
2023-03-07T09:25:07.961Z,10.53
2023-03-07T09:27:59.926Z,12.05
2023-03-07T09:30:53.037Z,10.05
2023-03-07T09:33:46.632Z,10.58
2023-03-07T09:36:38.143Z,11.53
2023-03-07T09:39:29.798Z,9.55
2023-03-07T09:42:33.003Z,9.25
2023-03-07T09:45:33.293Z,9.55
2023-03-07T09:48:56.222Z,9.85
2023-03-07T09:51:53.641Z,8.33
2023-03-07T09:54:53.920Z,8.07
2023-03-07T09:57:50.675Z,9.18
2023-03-07T10:00:45.899Z,7.42
2023-03-07T10:03:41.125Z,8.03
2023-03-07T10:06:37.431Z,8.03
2023-03-07T10:09:32.102Z,9.18
2023-03-07T10:12:48.559Z,7.05
2023-03-07T10:15:46.680Z,8.10
2023-03-07T10:18:45.132Z,9.18
2023-03-07T10:25:02.666Z,8.85
2023-03-07T10:27:56.858Z,9.30
2023-03-07T10:30:51.265Z,8.53
2023-03-07T10:33:44.672Z,8.35
2023-03-07T10:36:39.847Z,9.18
2023-03-07T10:42:25.014Z,8.98
2023-03-07T10:45:17.293Z,7.78
2023-03-07T10:48:12.550Z,9.38
2023-03-07T10:51:09.512Z,9.10
2023-03-07T10:57:23.742Z,8.90
2023-03-07T11:00:22.331Z,8.48
2023-03-07T11:07:02.500Z,8.93
2023-03-07T11:09:56.268Z,8.15
2023-03-07T11:12:48.475Z,8.75
2023-03-07T11:15:41.354Z,8.50
2023-03-07T11:18:35.338Z,7.47
2023-03-07T11:21:33.137Z,8.88
2023-03-07T11:24:28.793Z,8.60
2023-03-07T11:27:28.593Z,7.83
2023-03-07T11:30:26.954Z,8.18
2023-03-07T11:33:21.525Z,7.95
2023-03-07T11:36:16.985Z,7.53
2023-03-07T11:39:18.482Z,7.65
2023-03-07T11:42:14.185Z,8.03
2023-03-07T11:45:20.691Z,8.70
2023-03-07T11:48:20.384Z,6.72
2023-03-07T11:51:21.206Z,8.75
2023-03-07T11:54:28.061Z,8.93
2023-03-07T11:57:33.782Z,9.13
2023-03-07T12:00:33.464Z,8.08
2023-03-07T12:03:49.152Z,7.40
2023-03-07T12:06:44.120Z,8.43
2023-03-07T12:09:52.589Z,8.38
2023-03-07T12:15:43.620Z,6.92
2023-03-07T12:18:53.683Z,7.03
2023-03-07T12:21:56.429Z,8.65
2023-03-07T12:24:52.653Z,8.28
2023-03-07T12:30:40.157Z,7.97
2023-03-07T12:33:56.574Z,7.67
2023-03-07T12:36:51.577Z,8.15
2023-03-07T12:39:49.056Z,7.62
2023-03-07T12:42:51.097Z,7.65
2023-03-07T12:45:56.444Z,7.83
2023-03-07T12:48:55.943Z,7.37
2023-03-07T12:52:01.419Z,6.42
2023-03-07T12:54:57.202Z,6.47
2023-03-07T12:57:55.479Z,6.62
2023-03-07T13:00:55.464Z,5.17
2023-03-07T13:04:01.877Z,6.30
2023-03-07T13:06:54.953Z,3.20
2023-03-07T13:09:48.683Z,2.10
2023-03-07T13:18:47.433Z,5.42
2023-03-07T13:21:38.929Z,4.40
2023-03-07T13:24:38.505Z,5.47
2023-03-07T13:27:51.679Z,5.95
2023-03-07T13:31:12.193Z,5.60
2023-03-07T13:34:53.000Z,5.50
2023-03-07T13:37:57.974Z,5.00
2023-03-07T13:41:01.117Z,4.65
2023-03-07T13:44:38.138Z,5.10
2023-03-07T13:47:46.429Z,5.10
2023-03-07T13:50:45.230Z,5.37
2023-03-07T13:53:40.638Z,4.67
2023-03-07T13:56:46.952Z,6.60
2023-03-07T13:59:51.591Z,7.08
2023-03-07T14:02:44.130Z,6.95
2023-03-07T14:05:40.182Z,7.03
2023-03-07T14:08:36.845Z,7.53
2023-03-07T14:11:42.731Z,6.62
2023-03-07T14:14:52.856Z,6.45
2023-03-07T14:17:55.130Z,8.80
2023-03-07T14:20:54.089Z,7.42
2023-03-07T14:24:15.847Z,7.58
2023-03-07T14:27:13.428Z,8.05
2023-03-07T14:30:16.995Z,9.00
2023-03-07T14:33:10.390Z,7.85
2023-03-07T14:36:02.708Z,8.65
2023-03-07T14:39:17.224Z,8.10
2023-03-07T14:42:16.647Z,7.45
2023-03-07T14:45:35.435Z,7.17
2023-03-07T14:48:38.733Z,7.70
2023-03-07T14:51:33.572Z,7.00
2023-03-07T14:54:29.864Z,6.30
2023-03-07T14:57:35.144Z,6.00
2023-03-07T15:00:58.227Z,5.28
2023-03-07T15:04:04.062Z,4.78
2023-03-07T15:06:59.131Z,4.92
2023-03-07T15:09:50.325Z,4.33
2023-03-07T15:12:42.568Z,5.03
2023-03-07T15:15:37.446Z,6.05
2023-03-07T15:21:26.714Z,6.70
2023-03-07T15:24:32.543Z,7.05
2023-03-07T15:27:27.703Z,6.03
2023-03-07T15:30:26.257Z,7.00
2023-03-07T15:33:26.372Z,8.28
2023-03-07T15:36:24.245Z,8.25
2023-03-07T15:42:10.175Z,8.85
2023-03-07T15:45:03.858Z,9.95
2023-03-07T15:47:56.122Z,8.98
2023-03-07T15:50:55.899Z,9.98
2023-03-07T15:53:49.730Z,9.93
2023-03-07T15:56:41.749Z,9.20
2023-03-07T15:59:36.282Z,8.83
2023-03-07T16:02:47.138Z,6.80
2023-03-07T16:05:42.620Z,10.40
2023-03-07T16:08:36.681Z,8.30
2023-03-07T16:11:28.209Z,8.75
2023-03-07T16:14:25.817Z,6.87
2023-03-07T16:17:20.981Z,7.95
2023-03-07T16:20:20.230Z,9.08
2023-03-07T16:23:15.254Z,6.58
2023-03-07T16:26:07.402Z,4.15
2023-03-07T16:29:00.453Z,7.72
2023-03-07T16:31:54.344Z,6.62
2023-03-07T16:34:46.316Z,6.53
2023-03-07T16:37:37.564Z,7.03
2023-03-07T16:40:32.222Z,7.97
2023-03-07T16:43:35.188Z,6.25
2023-03-07T16:46:27.752Z,5.12
2023-03-07T16:49:19.917Z,5.22
2023-03-07T16:52:14.842Z,3.80
2023-03-07T16:55:07.794Z,3.85
2023-03-07T16:58:08.475Z,3.80
2023-03-07T17:01:07.510Z,4.10
2023-03-07T17:04:00.734Z,2.80
2023-03-07T17:07:04.044Z,3.08
2023-03-07T17:09:47.845Z,2.72
2023-03-07T17:12:40.212Z,3.15
2023-03-07T17:15:32.410Z,3.47
2023-03-07T17:18:27.056Z,2.20
2023-03-07T17:21:22.191Z,2.60
2023-03-07T17:24:14.024Z,2.20
2023-03-07T17:27:06.566Z,3.55
2023-03-07T17:29:58.127Z,2.87
2023-03-07T17:33:08.467Z,3.70
2023-03-07T17:36:01.307Z,4.50
2023-03-07T17:38:53.350Z,4.40
2023-03-07T17:41:44.883Z,4.03
2023-03-07T17:44:37.569Z,3.00
2023-03-07T17:47:29.060Z,4.33
2023-03-07T17:50:22.742Z,3.33
2023-03-07T17:53:15.112Z,4.40
2023-03-07T17:56:13.290Z,4.35
2023-03-07T17:59:05.663Z,4.17
2023-03-07T18:01:58.132Z,4.03
2023-03-07T18:04:51.814Z,4.08
2023-03-07T18:07:43.720Z,3.85
2023-03-07T18:10:36.906Z,4.10
2023-03-07T18:13:30.494Z,3.85
2023-03-07T18:16:22.201Z,3.50
2023-03-07T18:19:25.692Z,4.05
2023-03-07T18:22:08.525Z,4.28
2023-03-07T18:25:00.451Z,4.08
2023-03-07T18:27:51.936Z,4.42
2023-03-07T18:30:43.652Z,4.30
2023-03-07T18:33:36.864Z,4.70
2023-03-07T18:36:31.668Z,4.15
2023-03-07T18:39:25.831Z,4.80
2023-03-07T18:42:18.747Z,4.60
2023-03-07T18:45:13.087Z,4.15
2023-03-07T18:48:05.467Z,4.60
2023-03-07T18:51:01.224Z,4.65
2023-03-07T18:53:53.347Z,5.40
2023-03-07T18:56:47.826Z,5.42
2023-03-07T18:59:39.553Z,6.22
2023-03-07T19:02:30.973Z,7.37
2023-03-07T19:05:27.716Z,7.42
2023-03-07T19:08:19.816Z,7.53
2023-03-07T19:11:13.183Z,6.97
2023-03-07T19:14:04.880Z,7.42
2023-03-07T19:16:56.660Z,7.22
2023-03-07T19:19:48.743Z,7.75
2023-03-07T19:22:40.322Z,7.15
2023-03-07T19:25:32.457Z,7.62
2023-03-07T19:28:24.187Z,7.95
2023-03-07T19:31:18.360Z,6.40
2023-03-07T19:34:11.071Z,6.42
2023-03-07T19:37:02.713Z,6.75
2023-03-07T19:39:55.290Z,6.22
2023-03-07T19:42:48.976Z,6.42
2023-03-07T19:45:43.151Z,6.72
2023-03-07T19:48:34.762Z,6.80
2023-03-07T19:51:28.431Z,7.10
2023-03-07T19:54:20.704Z,7.20
2023-03-07T19:57:16.299Z,6.05
2023-03-07T20:00:10.985Z,6.72
2023-03-07T20:03:05.694Z,6.90
2023-03-07T20:05:57.332Z,6.83
2023-03-07T20:08:50.391Z,8.30
2023-03-07T20:11:43.909Z,6.78
2023-03-07T20:14:37.439Z,6.67
2023-03-07T20:17:43.762Z,7.33
2023-03-07T20:20:27.687Z,7.37
2023-03-07T20:23:19.145Z,7.90
2023-03-07T20:26:13.162Z,7.10
2023-03-07T20:29:07.326Z,8.05
2023-03-07T20:31:59.109Z,7.25
2023-03-07T20:34:54.502Z,7.70
2023-03-07T20:37:46.326Z,8.40
2023-03-07T20:40:37.894Z,8.70
2023-03-07T20:43:29.741Z,8.58
2023-03-07T20:46:23.508Z,8.48
2023-03-07T20:49:16.515Z,8.53
2023-03-07T20:52:08.697Z,8.58
2023-03-07T20:55:00.997Z,9.20
2023-03-07T20:57:52.959Z,7.70
2023-03-07T21:00:44.548Z,7.85
2023-03-07T21:03:35.917Z,7.67
2023-03-07T21:06:27.530Z,8.08
2023-03-07T21:09:21.566Z,7.20
2023-03-07T21:12:19.732Z,8.03
2023-03-07T21:15:13.261Z,7.97
2023-03-07T21:18:05.231Z,7.72
2023-03-07T21:20:58.402Z,8.65
2023-03-07T21:23:50.463Z,10.30
2023-03-07T21:26:42.120Z,11.68
2023-03-07T21:29:33.778Z,11.55
2023-03-07T21:32:25.319Z,11.70
2023-03-07T21:35:17.544Z,11.83
2023-03-07T21:38:08.953Z,11.28
2023-03-07T21:41:01.020Z,13.48
2023-03-07T21:43:53.095Z,11.95
2023-03-07T21:46:45.388Z,10.72
2023-03-07T21:49:37.151Z,9.10
2023-03-07T21:52:31.029Z,9.65
2023-03-07T21:55:24.566Z,9.38
2023-03-07T21:58:16.142Z,9.53
2023-03-07T22:01:14.149Z,9.53
2023-03-07T22:04:05.827Z,11.33
2023-03-07T22:06:57.903Z,11.03
2023-03-07T22:09:49.537Z,10.48
2023-03-07T22:12:41.169Z,11.20
2023-03-07T22:15:32.817Z,10.63
2023-03-07T22:18:24.509Z,9.93
2023-03-07T22:21:17.569Z,10.50
2023-03-07T22:24:09.634Z,11.28
2023-03-07T22:27:01.192Z,12.73
2023-03-07T22:29:52.973Z,13.13
2023-03-07T22:32:47.153Z,13.90
2023-03-07T22:35:39.167Z,12.63
2023-03-07T22:38:31.043Z,12.70
2023-03-07T22:41:22.549Z,12.03
2023-03-07T22:44:18.240Z,12.73
2023-03-07T22:47:10.831Z,13.45
2023-03-07T22:50:06.236Z,12.63
2023-03-07T22:52:58.066Z,12.33
2023-03-07T22:55:49.710Z,11.95
2023-03-07T22:58:41.044Z,12.50
2023-03-07T23:01:33.377Z,13.25
2023-03-07T23:04:25.173Z,13.38
2023-03-07T23:07:17.633Z,12.78
2023-03-07T23:10:11.024Z,13.60
2023-03-07T23:13:02.941Z,13.40
2023-03-07T23:15:54.397Z,13.00
2023-03-07T23:18:47.299Z,12.80
2023-03-07T23:21:39.190Z,13.45
2023-03-07T23:24:30.896Z,14.63
2023-03-07T23:27:22.384Z,13.43
2023-03-07T23:30:15.409Z,13.05
2023-03-07T23:33:07.708Z,12.88
2023-03-07T23:36:02.381Z,13.18
2023-03-07T23:38:53.820Z,13.03
2023-03-07T23:41:45.285Z,13.10
2023-03-07T23:44:36.839Z,13.18
2023-03-07T23:47:28.734Z,13.48
2023-03-07T23:50:21.816Z,13.15
2023-03-07T23:55:54.183Z,13.53
2023-03-07T23:58:47.702Z,13.43
